createdAt,value
2023-03-14T00:01:09.542Z,11.10
2023-03-14T00:03:37.851Z,11.10
2023-03-14T00:06:11.357Z,11.10
2023-03-14T00:08:39.680Z,11.00
2023-03-14T00:11:09.527Z,11.00
2023-03-14T00:13:38.268Z,10.90
2023-03-14T00:16:07.905Z,10.80
2023-03-14T00:18:36.464Z,10.80
2023-03-14T00:21:06.152Z,10.80
2023-03-14T00:23:37.112Z,10.70
2023-03-14T00:26:06.789Z,10.70
2023-03-14T00:28:35.235Z,10.80
2023-03-14T00:31:05.087Z,10.80
2023-03-14T00:33:33.396Z,10.80
2023-03-14T00:36:02.761Z,10.80
2023-03-14T00:38:32.615Z,10.70
2023-03-14T00:41:05.566Z,10.70
2023-03-14T00:43:33.870Z,10.70
2023-03-14T00:46:02.053Z,10.80
2023-03-14T00:48:30.401Z,10.80
2023-03-14T00:50:58.809Z,10.90
2023-03-14T00:53:27.051Z,10.90
2023-03-14T00:55:55.229Z,10.90
2023-03-14T00:58:24.886Z,11.00
2023-03-14T01:00:53.093Z,11.00
2023-03-14T01:03:21.279Z,11.10
2023-03-14T01:05:49.441Z,11.10
2023-03-14T01:08:17.701Z,11.10
2023-03-14T01:10:46.069Z,11.10
2023-03-14T01:13:14.321Z,11.00
2023-03-14T01:15:44.000Z,11.00
2023-03-14T01:18:12.204Z,10.90
2023-03-14T01:20:40.414Z,10.90
2023-03-14T01:23:08.673Z,10.80
2023-03-14T01:25:42.602Z,10.80
2023-03-14T01:28:10.863Z,10.70
2023-03-14T01:30:39.130Z,10.60
2023-03-14T01:33:08.815Z,10.60
2023-03-14T01:35:37.128Z,10.60
2023-03-14T01:38:05.421Z,10.60
2023-03-14T01:40:33.771Z,10.60
2023-03-14T01:43:14.498Z,10.70
2023-03-14T01:46:22.470Z,10.60
2023-03-14T01:48:57.881Z,10.60
2023-03-14T01:51:30.289Z,10.60
2023-03-14T01:54:04.498Z,10.60
2023-03-14T01:56:32.969Z,10.50
2023-03-14T01:59:01.910Z,10.50
2023-03-14T02:01:30.779Z,10.50
2023-03-14T02:04:03.563Z,10.50
2023-03-14T02:06:41.971Z,10.50
2023-03-14T02:09:10.319Z,10.50
2023-03-14T02:11:38.628Z,10.50
2023-03-14T02:14:07.165Z,10.60
2023-03-14T02:16:38.861Z,10.60
2023-03-14T02:19:09.286Z,10.60
2023-03-14T02:21:44.500Z,10.60
2023-03-14T02:24:18.421Z,10.70
2023-03-14T02:27:04.804Z,10.60
2023-03-14T02:29:33.854Z,10.60
2023-03-14T02:32:02.334Z,10.60
2023-03-14T02:34:32.658Z,10.60
2023-03-14T02:37:01.078Z,10.70
2023-03-14T02:39:34.560Z,10.70
2023-03-14T02:42:04.295Z,10.80
2023-03-14T02:44:33.549Z,10.80
2023-03-14T02:47:01.860Z,10.80
2023-03-14T02:49:32.285Z,10.80
2023-03-14T02:52:00.573Z,10.80
2023-03-14T02:54:28.872Z,10.80
2023-03-14T02:56:57.117Z,10.90
2023-03-14T02:59:27.954Z,10.90
2023-03-14T03:01:56.335Z,10.90
2023-03-14T03:04:24.595Z,10.90
2023-03-14T03:06:52.787Z,10.90
2023-03-14T03:09:21.008Z,10.80
2023-03-14T03:11:49.220Z,10.80
2023-03-14T03:14:17.462Z,10.80
2023-03-14T03:16:47.292Z,10.80
2023-03-14T03:19:16.933Z,10.80
2023-03-14T03:21:45.296Z,10.80
2023-03-14T03:24:13.547Z,10.80
2023-03-14T03:26:41.776Z,10.80
2023-03-14T03:29:10.018Z,10.80
2023-03-14T03:31:39.562Z,10.80
2023-03-14T03:34:09.238Z,10.80
2023-03-14T03:36:37.456Z,10.80
2023-03-14T03:39:05.914Z,10.90
2023-03-14T03:41:34.476Z,10.90
2023-03-14T03:44:02.852Z,10.90
2023-03-14T03:46:31.157Z,10.90
2023-03-14T03:49:00.464Z,10.90
2023-03-14T03:51:30.170Z,10.80
2023-03-14T03:53:58.674Z,10.70
2023-03-14T03:56:26.877Z,10.70
2023-03-14T03:58:55.141Z,10.60
2023-03-14T04:01:23.348Z,10.60
2023-03-14T04:03:52.013Z,10.50
2023-03-14T04:06:20.611Z,10.50
2023-03-14T04:08:50.298Z,10.50
2023-03-14T04:11:20.276Z,10.40
2023-03-14T04:13:48.531Z,10.40
2023-03-14T04:16:18.482Z,10.30
2023-03-14T04:18:46.744Z,10.30
2023-03-14T04:21:14.954Z,10.30
2023-03-14T04:23:43.198Z,10.20
2023-03-14T04:26:12.899Z,10.20
2023-03-14T04:28:44.520Z,10.20
2023-03-14T04:31:14.202Z,10.20
2023-03-14T04:33:44.970Z,10.30
2023-03-14T04:36:14.440Z,10.30
2023-03-14T04:38:42.650Z,10.30
2023-03-14T04:41:12.408Z,10.30
2023-03-14T04:43:40.605Z,10.30
2023-03-14T04:46:09.007Z,10.40
2023-03-14T04:48:38.666Z,10.50
2023-03-14T04:51:07.770Z,10.50
2023-03-14T04:53:37.311Z,10.50
2023-03-14T04:56:06.132Z,10.50
2023-03-14T04:58:35.863Z,10.60
2023-03-14T05:01:05.619Z,10.50
2023-03-14T05:03:33.860Z,10.60
2023-03-14T05:06:02.061Z,10.60
2023-03-14T05:08:30.319Z,10.60
2023-03-14T05:10:59.646Z,10.50
2023-03-14T05:13:28.021Z,10.50
2023-03-14T05:16:08.078Z,10.50
2023-03-14T05:18:36.436Z,10.50
2023-03-14T05:21:05.087Z,10.50
2023-03-14T05:23:33.373Z,10.50
2023-03-14T05:26:01.669Z,10.50
2023-03-14T05:28:30.016Z,10.40
2023-03-14T05:30:59.684Z,10.40
2023-03-14T05:33:27.976Z,10.40
2023-03-14T05:35:56.258Z,10.40
2023-03-14T05:38:24.614Z,10.30
2023-03-14T05:40:52.964Z,10.30
2023-03-14T05:43:21.260Z,10.30
2023-03-14T05:45:49.760Z,10.30
2023-03-14T05:48:19.412Z,10.30
2023-03-14T05:50:47.723Z,10.30
2023-03-14T05:53:16.262Z,10.30
2023-03-14T05:55:44.653Z,10.30
2023-03-14T05:58:12.878Z,10.30
2023-03-14T06:00:41.155Z,10.30
2023-03-14T06:03:09.632Z,10.30
2023-03-14T06:05:39.281Z,10.30
2023-03-14T06:08:07.698Z,10.30
2023-03-14T06:10:37.310Z,10.30
2023-03-14T06:13:05.540Z,10.40
2023-03-14T06:15:34.040Z,10.50
2023-03-14T06:18:02.346Z,10.50
2023-03-14T06:20:30.634Z,10.50
2023-03-14T06:23:00.331Z,10.50
2023-03-14T06:25:28.601Z,10.50
2023-03-14T06:27:56.843Z,10.60
2023-03-14T06:30:25.217Z,10.60
2023-03-14T06:32:53.743Z,10.70
2023-03-14T06:35:22.093Z,10.70
2023-03-14T06:37:50.503Z,10.90
2023-03-14T06:40:20.327Z,10.90
2023-03-14T06:42:49.157Z,10.90
2023-03-14T06:45:17.824Z,10.90
2023-03-14T06:47:46.067Z,10.90
2023-03-14T06:50:14.345Z,10.80
2023-03-14T06:52:47.182Z,10.80
2023-03-14T06:55:15.732Z,10.80
2023-03-14T06:57:45.423Z,10.70
2023-03-14T07:00:14.609Z,10.70
2023-03-14T07:02:43.602Z,10.70
2023-03-14T07:05:12.506Z,10.70
2023-03-14T07:07:40.777Z,10.70
2023-03-14T07:10:10.648Z,10.70
2023-03-14T07:12:39.286Z,10.70
2023-03-14T07:15:18.286Z,10.70
2023-03-14T07:17:49.120Z,10.70
2023-03-14T07:20:19.540Z,10.70
2023-03-14T07:22:50.123Z,10.60
2023-03-14T07:25:18.696Z,10.60
2023-03-14T07:27:48.460Z,10.60
2023-03-14T07:30:18.647Z,10.60
2023-03-14T07:32:46.985Z,10.70
2023-03-14T07:35:15.271Z,10.70
2023-03-14T07:37:43.590Z,10.80
2023-03-14T07:40:15.957Z,10.90
2023-03-14T07:42:44.485Z,10.90
2023-03-14T07:45:13.272Z,10.90
2023-03-14T07:47:42.963Z,10.90
2023-03-14T07:50:12.522Z,11.10
2023-03-14T07:52:40.719Z,11.20
2023-03-14T07:55:09.748Z,11.30
2023-03-14T07:57:37.973Z,11.30
2023-03-14T08:00:08.593Z,11.30
2023-03-14T08:02:37.364Z,11.60
2023-03-14T08:05:07.837Z,11.80
2023-03-14T08:07:36.136Z,12.30
2023-03-14T08:10:05.093Z,12.80
2023-03-14T08:12:33.337Z,12.60
2023-03-14T08:15:01.767Z,12.30
2023-03-14T08:17:30.032Z,12.00
2023-03-14T08:19:58.213Z,11.80
2023-03-14T08:22:27.929Z,11.70
2023-03-14T08:24:56.118Z,11.60
2023-03-14T08:27:24.425Z,11.50
2023-03-14T08:29:52.689Z,11.60
2023-03-14T08:32:21.399Z,11.60
2023-03-14T08:34:49.721Z,11.60
2023-03-14T08:37:26.266Z,11.60
2023-03-14T08:39:57.430Z,11.50
2023-03-14T08:42:27.022Z,11.50
2023-03-14T08:44:55.147Z,11.60
2023-03-14T08:47:23.398Z,11.60
2023-03-14T08:49:51.922Z,11.70
2023-03-14T08:52:20.345Z,11.80
2023-03-14T08:54:48.881Z,11.70
2023-03-14T08:57:18.620Z,11.80
2023-03-14T08:59:46.772Z,11.90
2023-03-14T09:02:15.573Z,12.00
2023-03-14T09:04:43.777Z,12.00
2023-03-14T09:07:12.139Z,12.00
2023-03-14T09:09:41.476Z,12.00
2023-03-14T09:12:09.715Z,12.10
2023-03-14T09:14:39.592Z,12.20
2023-03-14T09:17:08.472Z,12.20
2023-03-14T09:19:37.852Z,12.20
2023-03-14T09:22:06.420Z,12.20
2023-03-14T09:24:34.819Z,12.20
2023-03-14T09:27:04.698Z,12.20
2023-03-14T09:29:33.008Z,12.10
2023-03-14T09:32:02.774Z,12.10
2023-03-14T09:34:31.233Z,12.10
2023-03-14T09:36:59.490Z,12.10
2023-03-14T09:39:27.730Z,12.20
2023-03-14T09:41:59.653Z,12.30
2023-03-14T09:44:30.964Z,12.40
2023-03-14T09:47:03.227Z,12.50
2023-03-14T09:49:34.174Z,12.40
2023-03-14T09:52:06.902Z,12.40
2023-03-14T09:54:38.210Z,12.40
2023-03-14T09:57:08.078Z,12.50
2023-03-14T09:59:37.988Z,12.60
2023-03-14T10:02:18.688Z,12.80
2023-03-14T10:04:49.090Z,12.90
2023-03-14T10:07:20.363Z,12.90
2023-03-14T10:09:51.493Z,12.90
2023-03-14T10:12:20.489Z,12.80
2023-03-14T10:14:54.714Z,12.90
2023-03-14T10:17:23.045Z,12.80
2023-03-14T10:19:59.457Z,12.70
2023-03-14T10:22:30.041Z,12.60
2023-03-14T10:25:00.361Z,12.50
2023-03-14T10:27:32.225Z,12.50
2023-03-14T10:30:02.146Z,12.50
2023-03-14T10:32:35.370Z,12.40
2023-03-14T10:35:25.438Z,12.40
2023-03-14T10:37:56.653Z,12.50
2023-03-14T10:40:30.888Z,12.50
2023-03-14T10:43:00.597Z,12.50
2023-03-14T10:45:34.403Z,12.50
2023-03-14T10:48:08.560Z,12.40
2023-03-14T10:50:39.154Z,12.40
2023-03-14T10:53:07.522Z,12.40
2023-03-14T10:55:43.192Z,12.50
2023-03-14T10:58:26.136Z,12.70
2023-03-14T11:01:05.691Z,12.70
2023-03-14T11:03:35.341Z,12.70
2023-03-14T11:06:08.953Z,12.70
2023-03-14T11:08:47.161Z,12.60
2023-03-14T11:11:20.340Z,11.40
2023-03-14T11:13:56.108Z,10.60
2023-03-14T11:16:29.113Z,9.70
2023-03-14T11:19:13.150Z,9.20
2023-03-14T11:21:48.014Z,8.70
2023-03-14T11:24:31.996Z,8.40
2023-03-14T11:27:05.060Z,8.20
2023-03-14T11:29:39.151Z,8.10
2023-03-14T11:32:14.868Z,8.20
2023-03-14T11:34:48.299Z,7.90
2023-03-14T11:37:22.060Z,7.70
2023-03-14T11:39:58.331Z,7.80
2023-03-14T11:42:27.126Z,7.60
2023-03-14T11:44:56.877Z,7.60
2023-03-14T11:47:26.339Z,7.50
2023-03-14T11:49:58.592Z,7.20
2023-03-14T11:52:31.460Z,6.90
2023-03-14T11:55:02.366Z,6.70
2023-03-14T11:57:30.910Z,6.70
2023-03-14T12:00:04.800Z,6.70
2023-03-14T12:02:41.914Z,6.90
2023-03-14T12:05:41.021Z,6.60
2023-03-14T12:08:29.697Z,6.60
2023-03-14T12:11:01.721Z,6.60
2023-03-14T12:13:31.244Z,6.50
2023-03-14T12:16:01.117Z,6.40
2023-03-14T12:18:30.606Z,6.30
2023-03-14T12:21:00.745Z,6.50
2023-03-14T12:23:36.362Z,6.40
2023-03-14T12:26:26.762Z,6.30
2023-03-14T12:29:12.181Z,6.40
2023-03-14T12:31:42.714Z,6.40
2023-03-14T12:34:30.613Z,6.30
2023-03-14T12:37:03.864Z,6.40
2023-03-14T12:39:44.904Z,6.40
2023-03-14T12:42:15.100Z,6.50
2023-03-14T12:44:50.608Z,6.40
2023-03-14T12:47:49.877Z,6.30
2023-03-14T12:50:23.728Z,6.30
2023-03-14T12:53:08.235Z,6.30
2023-03-14T12:55:42.008Z,6.30
2023-03-14T12:58:17.572Z,6.40
2023-03-14T13:00:57.469Z,6.50
2023-03-14T13:03:30.373Z,6.50
2023-03-14T13:06:06.210Z,6.50
2023-03-14T13:08:40.612Z,6.40
2023-03-14T13:11:12.502Z,6.30
2023-03-14T13:13:47.641Z,6.30
2023-03-14T13:16:20.860Z,6.20
2023-03-14T13:18:49.940Z,6.30
2023-03-14T13:21:20.784Z,6.30
2023-03-14T13:24:00.240Z,6.20
2023-03-14T13:26:37.406Z,6.30
2023-03-14T13:29:12.377Z,6.30
2023-03-14T13:31:45.463Z,6.40
2023-03-14T13:34:13.809Z,6.30
2023-03-14T13:36:42.164Z,6.40
2023-03-14T13:39:14.980Z,6.40
2023-03-14T13:41:45.010Z,6.40
2023-03-14T13:44:18.655Z,6.40
2023-03-14T13:46:47.083Z,6.30
2023-03-14T13:49:22.782Z,6.30
2023-03-14T13:51:51.026Z,6.40
2023-03-14T13:54:21.035Z,6.40
2023-03-14T13:57:00.821Z,6.40
2023-03-14T13:59:31.825Z,6.50
2023-03-14T14:02:01.255Z,6.50
2023-03-14T14:04:30.478Z,6.40
2023-03-14T14:07:00.006Z,6.30
2023-03-14T14:09:29.796Z,6.20
2023-03-14T14:12:15.849Z,6.20
2023-03-14T14:14:47.057Z,6.20
2023-03-14T14:17:17.459Z,6.20
2023-03-14T14:19:46.395Z,6.20
2023-03-14T14:22:14.688Z,6.20
2023-03-14T14:24:43.107Z,6.30
2023-03-14T14:27:16.196Z,6.20
2023-03-14T14:29:44.928Z,6.20
2023-03-14T14:32:15.732Z,6.20
2023-03-14T14:34:50.748Z,6.30
2023-03-14T14:37:23.158Z,6.30
2023-03-14T14:39:53.052Z,6.20
2023-03-14T14:42:26.497Z,6.20
2023-03-14T14:44:55.218Z,6.20
2023-03-14T14:47:26.114Z,6.20
2023-03-14T14:50:00.639Z,6.30
2023-03-14T14:52:37.166Z,6.30
2023-03-14T14:55:14.010Z,6.20
2023-03-14T14:57:50.169Z,6.20
2023-03-14T15:00:21.377Z,6.20
2023-03-14T15:02:51.869Z,6.20
2023-03-14T15:05:22.830Z,6.20
2023-03-14T15:07:51.069Z,6.20
2023-03-14T15:10:21.735Z,6.20
2023-03-14T15:12:51.397Z,6.30
2023-03-14T15:15:20.473Z,6.30
2023-03-14T15:17:48.845Z,6.30
2023-03-14T15:20:19.067Z,6.20
2023-03-14T15:22:47.394Z,6.30
2023-03-14T15:25:40.005Z,6.30
2023-03-14T15:28:05.356Z,6.20
2023-03-14T15:30:33.615Z,6.20
2023-03-14T15:33:04.406Z,6.30
2023-03-14T15:35:32.765Z,6.30
2023-03-14T15:38:00.979Z,6.20
2023-03-14T15:40:30.711Z,6.20
2023-03-14T15:42:59.186Z,6.20
2023-03-14T15:45:30.863Z,6.10
2023-03-14T15:47:59.229Z,6.10
2023-03-14T15:50:27.804Z,6.20
2023-03-14T15:52:56.747Z,6.10
2023-03-14T15:55:25.094Z,6.10
2023-03-14T15:57:53.466Z,6.10
2023-03-14T16:00:23.774Z,6.10
2023-03-14T16:02:53.448Z,6.10
2023-03-14T16:05:21.704Z,6.10
2023-03-14T16:07:50.084Z,6.10
2023-03-14T16:10:18.856Z,6.00
2023-03-14T16:12:47.102Z,6.00
2023-03-14T16:15:15.383Z,6.00
2023-03-14T16:17:44.416Z,6.00
2023-03-14T16:20:14.505Z,6.00
2023-03-14T16:22:42.927Z,6.00
2023-03-14T16:25:12.101Z,6.00
2023-03-14T16:27:40.479Z,5.90
2023-03-14T16:30:11.962Z,5.90
2023-03-14T16:32:40.229Z,5.80
2023-03-14T16:35:09.685Z,5.80
2023-03-14T16:37:39.292Z,5.80
2023-03-14T16:40:13.102Z,5.80
2023-03-14T16:43:04.747Z,5.80
2023-03-14T16:45:30.306Z,5.80
2023-03-14T16:47:58.797Z,5.80
2023-03-14T16:50:27.104Z,5.80
2023-03-14T16:52:56.950Z,5.80
2023-03-14T16:55:25.190Z,5.80
2023-03-14T16:57:53.458Z,5.70
2023-03-14T17:00:22.531Z,5.70
2023-03-14T17:02:50.872Z,5.70
2023-03-14T17:05:21.055Z,5.70
2023-03-14T17:07:52.002Z,5.70
2023-03-14T17:10:21.625Z,5.70
2023-03-14T17:12:51.001Z,5.60
2023-03-14T17:15:19.385Z,5.50
2023-03-14T17:17:47.658Z,5.50
2023-03-14T17:20:19.414Z,5.50
2023-03-14T17:22:47.795Z,5.40
2023-03-14T17:25:16.061Z,5.40
2023-03-14T17:27:46.304Z,5.40
2023-03-14T17:30:15.567Z,5.30
2023-03-14T17:32:43.866Z,5.30
2023-03-14T17:35:12.227Z,5.30
2023-03-14T17:37:41.180Z,5.30
2023-03-14T17:40:10.692Z,5.30
2023-03-14T17:42:38.934Z,5.30
2023-03-14T17:45:09.989Z,5.30
2023-03-14T17:47:38.181Z,5.20
2023-03-14T17:50:07.991Z,5.30
2023-03-14T17:52:38.468Z,5.20
2023-03-14T17:55:08.138Z,5.10
2023-03-14T17:57:39.608Z,5.10
2023-03-14T18:00:12.020Z,5.10
2023-03-14T18:02:41.469Z,5.00
2023-03-14T18:05:10.617Z,4.90
2023-03-14T18:07:39.500Z,4.90
2023-03-14T18:10:10.005Z,4.90
2023-03-14T18:12:38.223Z,4.90
2023-03-14T18:15:07.128Z,4.80
2023-03-14T18:17:36.812Z,4.80
2023-03-14T18:20:09.038Z,4.70
2023-03-14T18:22:37.331Z,4.70
2023-03-14T18:25:06.568Z,4.60
2023-03-14T18:27:34.842Z,4.70
2023-03-14T18:30:03.323Z,4.60
2023-03-14T18:32:31.611Z,4.50
2023-03-14T18:35:03.538Z,4.50
2023-03-14T18:37:31.766Z,4.50
2023-03-14T18:40:00.088Z,4.40
2023-03-14T18:42:28.393Z,4.40
2023-03-14T18:44:56.688Z,4.40
2023-03-14T18:47:26.979Z,4.40
2023-03-14T18:49:55.288Z,4.30
2023-03-14T18:52:25.051Z,4.30
2023-03-14T18:54:53.320Z,4.20
2023-03-14T18:57:22.129Z,4.20
2023-03-14T18:59:52.730Z,4.20
2023-03-14T19:02:24.904Z,4.10
2023-03-14T19:04:53.349Z,4.10
2023-03-14T19:07:23.548Z,4.10
2023-03-14T19:09:53.272Z,4.10
2023-03-14T19:12:21.543Z,4.00
2023-03-14T19:14:51.956Z,4.00
2023-03-14T19:17:20.393Z,3.90
2023-03-14T19:19:48.658Z,3.90
2023-03-14T19:22:16.955Z,3.90
2023-03-14T19:24:45.193Z,3.90
2023-03-14T19:27:14.895Z,3.90
2023-03-14T19:29:43.202Z,3.90
2023-03-14T19:32:11.714Z,3.80
2023-03-14T19:34:40.020Z,3.80
2023-03-14T19:37:08.277Z,3.80
2023-03-14T19:39:36.480Z,3.70
2023-03-14T19:42:05.315Z,3.70
2023-03-14T19:44:34.958Z,3.70
2023-03-14T19:47:04.009Z,3.70
2023-03-14T19:49:32.300Z,3.70
2023-03-14T19:52:01.423Z,3.70
2023-03-14T19:54:29.716Z,3.70
2023-03-14T19:56:57.975Z,3.60
2023-03-14T19:59:26.354Z,3.60
2023-03-14T20:01:58.195Z,3.60
2023-03-14T20:04:26.852Z,3.60
2023-03-14T20:06:55.102Z,3.60
2023-03-14T20:09:23.545Z,3.60
2023-03-14T20:11:51.861Z,3.50
2023-03-14T20:14:20.102Z,3.50
2023-03-14T20:16:49.633Z,3.50
2023-03-14T20:19:20.242Z,3.50
2023-03-14T20:21:48.658Z,3.40
2023-03-14T20:24:16.937Z,3.40
2023-03-14T20:26:45.210Z,3.40
2023-03-14T20:29:15.321Z,3.40
2023-03-14T20:31:43.692Z,3.30
2023-03-14T20:34:11.996Z,3.30
2023-03-14T20:36:41.716Z,3.30
2023-03-14T20:39:11.903Z,3.30
2023-03-14T20:41:42.278Z,3.20
2023-03-14T20:44:11.504Z,3.20
2023-03-14T20:46:42.850Z,3.20
2023-03-14T20:49:11.485Z,3.20
2023-03-14T20:51:43.061Z,3.20
2023-03-14T20:54:14.099Z,3.20
2023-03-14T20:56:46.127Z,3.10
2023-03-14T20:59:14.393Z,3.10
2023-03-14T21:01:43.120Z,3.20
2023-03-14T21:04:13.622Z,3.10
2023-03-14T21:06:43.436Z,3.10
2023-03-14T21:09:11.650Z,3.10
2023-03-14T21:11:42.700Z,3.10
2023-03-14T21:14:11.021Z,3.10
2023-03-14T21:16:39.350Z,3.10
2023-03-14T21:19:08.561Z,3.10
2023-03-14T21:21:36.748Z,3.10
2023-03-14T21:24:07.096Z,3.00
2023-03-14T21:26:35.495Z,3.00
2023-03-14T21:29:05.385Z,3.00
2023-03-14T21:31:33.873Z,3.00
2023-03-14T21:34:04.856Z,3.00
2023-03-14T21:36:33.721Z,3.00
2023-03-14T21:39:02.451Z,3.00
2023-03-14T21:41:32.154Z,2.90
2023-03-14T21:44:01.523Z,2.90
2023-03-14T21:46:29.926Z,2.90
2023-03-14T21:48:58.222Z,2.80
2023-03-14T21:51:30.063Z,2.80
2023-03-14T21:53:58.629Z,2.80
2023-03-14T21:56:27.683Z,2.80
2023-03-14T21:58:59.190Z,2.80
2023-03-14T22:01:27.427Z,2.80
2023-03-14T22:03:55.712Z,2.80
2023-03-14T22:06:26.836Z,2.80
2023-03-14T22:08:56.360Z,2.80
2023-03-14T22:11:26.267Z,2.80
2023-03-14T22:13:54.943Z,2.70
2023-03-14T22:16:24.526Z,2.70
2023-03-14T22:18:52.806Z,2.70
2023-03-14T22:21:21.031Z,2.70
2023-03-14T22:23:50.082Z,2.70
2023-03-14T22:26:18.456Z,2.70
2023-03-14T22:28:46.727Z,2.60
2023-03-14T22:31:17.783Z,2.60
2023-03-14T22:33:48.696Z,2.60
2023-03-14T22:36:16.933Z,2.50
2023-03-14T22:38:45.205Z,2.50
2023-03-14T22:41:13.448Z,2.50
2023-03-14T22:43:41.769Z,2.50
2023-03-14T22:46:11.631Z,2.50
2023-03-14T22:48:40.017Z,2.40
2023-03-14T22:51:10.308Z,2.40
2023-03-14T22:53:39.296Z,2.40
2023-03-14T22:56:08.891Z,2.40
2023-03-14T22:58:37.274Z,2.40
2023-03-14T23:01:06.552Z,2.30
2023-03-14T23:03:35.028Z,2.30
2023-03-14T23:06:05.239Z,2.30
2023-03-14T23:08:35.161Z,2.40
2023-03-14T23:11:04.973Z,2.30
2023-03-14T23:13:34.797Z,2.30
2023-03-14T23:16:03.573Z,2.30
2023-03-14T23:18:31.844Z,2.20
2023-03-14T23:21:08.324Z,2.20
2023-03-14T23:23:38.086Z,2.30
2023-03-14T23:26:07.928Z,2.20
2023-03-14T23:28:36.115Z,2.20
2023-03-14T23:31:06.504Z,2.20
2023-03-14T23:33:36.048Z,2.20
2023-03-14T23:36:04.557Z,2.10
2023-03-14T23:38:33.745Z,2.10
2023-03-14T23:41:03.688Z,2.10
2023-03-14T23:43:32.630Z,2.10
2023-03-14T23:46:01.049Z,2.10
2023-03-14T23:48:33.873Z,2.10
2023-03-14T23:51:03.965Z,2.10
2023-03-14T23:53:32.988Z,2.10
2023-03-14T23:56:01.671Z,2.00
2023-03-14T23:58:35.930Z,2.00
